^^

..:: Storico WU ::..




Lo storico viene creato da WUnderground con i dati che la stazione Meteomincio invia al loro server. L' aggiornamento viene fatto ogni 5 minuti circa, tuttavia possono esserci intervalli pi¨ ampi a causa di errori, interruzioni di servizio o problemi nell' invio tramite FTP.


Storico stazione MeteoMincio
Giorno Sommario per Agosto 13, 2022 Unità:  Inglese    Metrico   Entrambi
Giorno Settimana Mese Anno
  Max: Min: Media:
Temperatura: 84.4 °F 62.8 °F 73.9 °F
Dew Point: 64 °F 57.2 °F 60.8 °F
Umidità: 92% 41.4% 67%
Velocità vento: 5.7mph 0mph 2.4mph
Raffica: 10.4mph - -
Direzione- - SSW
Pressione: 30 in 29.9 in -
Precipitazioni: 0 in    
 
 
Tabulato Dati per Agosto 13, 2022
Ora Temperatura Dew Point Pressione Direzione Velocità vento Raffica Umidità Intensità pioggia (oraria) Info solare Situazione
00:04 64.6 °F 61.9 °F 30 in West 1.9 mph 3.5 mph 91% 0 in 0 W/m2
00:09 64.4 °F 61.7 °F 30 in West 2.4 mph 4 mph 91% 0 in 0 W/m2
00:14 64.2 °F 61.7 °F 30 in WNW 1.4 mph 4 mph 91.7% 0 in 0 W/m2
00:19 64.4 °F 61.9 °F 30 in NW 1.6 mph 4 mph 92% 0 in 0 W/m2
00:24 64.4 °F 61.9 °F 30 in WNW 1.9 mph 3.5 mph 91.8% 0 in 0 W/m2
00:29 64.6 °F 61.9 °F 30 in WNW 0.8 mph 3 mph 91% 0 in 0 W/m2
00:34 64.6 °F 61.9 °F 30 in NW 1.7 mph 3.5 mph 91% 0 in 0 W/m2
00:39 64.6 °F 61.9 °F 30 in NW 1.3 mph 3.5 mph 91% 0 in 0 W/m2
00:44 64.8 °F 62.1 °F 30 in NW 0.8 mph 3 mph 91% 0 in 0 W/m2
00:49 64.8 °F 62.1 °F 30 in WNW 1.3 mph 3.5 mph 91% 0 in 0 W/m2
00:54 64.6 °F 61.9 °F 30 in West 2.4 mph 4 mph 91% 0 in 0 W/m2
00:59 64.4 °F 61.9 °F 30 in West 3.2 mph 5 mph 91.5% 0 in 0 W/m2
01:04 64.4 °F 61.7 °F 30 in West 2.8 mph 5 mph 91.3% 0 in 0 W/m2
01:09 64.4 °F 61.7 °F 30 in WSW 3.2 mph 5 mph 91.3% 0 in 0 W/m2
01:14 64.2 °F 61.9 °F 30 in WSW 2.5 mph 4 mph 92% 0 in 0 W/m2
01:19 64 °F 61.5 °F 30 in WSW 2.4 mph 4 mph 91.6% 0 in 0 W/m2
01:24 64 °F 61.5 °F 30 in WSW 1.1 mph 3.5 mph 91.6% 0 in 0 W/m2
01:29 64.2 °F 61.7 °F 30 in WNW 1.3 mph 3.5 mph 91.8% 0 in 0 W/m2
01:34 64.4 °F 61.9 °F 30 in NW 1.1 mph 3.5 mph 92% 0 in 0 W/m2
01:39 64.6 °F 62.1 °F 30 in WNW 1.4 mph 3.5 mph 92% 0 in 0 W/m2
01:44 64.6 °F 62.1 °F 30 in WNW 2.1 mph 4 mph 91.2% 0 in 0 W/m2
01:49 64.8 °F 62.1 °F 30 in WNW 2.3 mph 4 mph 91% 0 in 0 W/m2
01:54 64.8 °F 62.1 °F 30 in NW 1.2 mph 3.5 mph 91% 0 in 0 W/m2
01:59 64.8 °F 62.1 °F 30 in WNW 1.6 mph 3.5 mph 91% 0 in 0 W/m2
02:04 64.8 °F 62.1 °F 30 in NW 1.7 mph 3.5 mph 91% 0 in 0 W/m2
02:09 64.8 °F 62.2 °F 30 in NW 1.4 mph 3.5 mph 91.4% 0 in 0 W/m2
02:14 64.9 °F 62.4 °F 30 in NNW 0.9 mph 3.5 mph 92% 0 in 0 W/m2
02:19 64.8 °F 62.4 °F 30 in NNW 1.2 mph 3.5 mph 92% 0 in 0 W/m2
02:24 64.8 °F 62.2 °F 30 in NNW 2.2 mph 4 mph 91.3% 0 in 0 W/m2
02:29 64.9 °F 62.2 °F 30 in WNW 2.9 mph 5 mph 91% 0 in 0 W/m2
02:34 64.9 °F 62.1 °F 30 in WNW 2.9 mph 5 mph 90% 0 in 0 W/m2
02:39 65.1 °F 62.1 °F 30 in NW 2.2 mph 5 mph 90% 0 in 0 W/m2
02:44 65.1 °F 62.1 °F 30 in NW 2.3 mph 4 mph 90% 0 in 0 W/m2
02:49 65.1 °F 62.2 °F 30 in NW 1.7 mph 4 mph 90% 0 in 0 W/m2
02:54 65.3 °F 62.2 °F 29.9 in WNW 1.9 mph 4 mph 89.8% 0 in 0 W/m2
02:59 65.1 °F 62.1 °F 29.9 in West 2.5 mph 4 mph 89.6% 0 in 0 W/m2
03:04 64.9 °F 62.1 °F 29.9 in West 2.5 mph 4 mph 90% 0 in 0 W/m2
03:09 64.9 °F 62.1 °F 29.9 in West 2.3 mph 4 mph 90.3% 0 in 0 W/m2
03:14 64.9 °F 62.2 °F 29.9 in WSW 3.2 mph 7 mph 91% 0 in 0 W/m2
03:19 65.1 °F 62.1 °F 29.9 in WSW 2.2 mph 7 mph 90.2% 0 in 0 W/m2
03:24 64.9 °F 62.1 °F 29.9 in West 1.1 mph 3.5 mph 90.2% 0 in 0 W/m2
03:29 64.9 °F 62.1 °F 29.9 in WNW 2.1 mph 4 mph 90.8% 0 in 0 W/m2
03:34 64.9 °F 62.1 °F 29.9 in West 3 mph 4 mph 90.3% 0 in 0 W/m2
03:39 65.1 °F 62.1 °F 29.9 in West 3.5 mph 7 mph 90% 0 in 0 W/m2
03:44 65.1 °F 62.1 °F 29.9 in West 4.5 mph 7 mph 90% 0 in 0 W/m2
03:49 65.1 °F 61.9 °F 29.9 in West 5.6 mph 8.1 mph 89.2% 0 in 0 W/m2
03:54 65.1 °F 61.7 °F 29.9 in West 5.7 mph 9.2 mph 89% 0 in 0 W/m2
03:59 64.9 °F 61.7 °F 29.9 in West 5.2 mph 9 mph 89% 0 in 0 W/m2
04:04 64.8 °F 61.3 °F 29.9 in West 5.7 mph 8.1 mph 88.6% 0 in 0 W/m2
04:09 64.8 °F 61.2 °F 29.9 in West 5.3 mph 8.1 mph 88% 0 in 0 W/m2
04:14 64.8 °F 61 °F 29.9 in West 5 mph 8.1 mph 87.2% 0 in 0 W/m2
04:19 64.9 °F 61 °F 29.9 in West 3.2 mph 8 mph 87% 0 in 0 W/m2
04:24 64.9 °F 60.8 °F 29.9 in West 2 mph 5 mph 87% 0 in 0 W/m2
04:29 64.8 °F 60.8 °F 29.9 in West 0.9 mph 3 mph 87% 0 in 0 W/m2
04:34 64.6 °F 61 °F 29.9 in NW 1.5 mph 4 mph 87.8% 0 in 0 W/m2
04:39 64.6 °F 61 °F 29.9 in WNW 2.8 mph 5 mph 88% 0 in 0 W/m2
04:44 64.6 °F 61 °F 29.9 in NW 2.1 mph 5 mph 88% 0 in 0 W/m2
04:49 64.4 °F 60.8 °F 29.9 in NNW 2.5 mph 5 mph 88% 0 in 0 W/m2
04:54 64.4 °F 61 °F 29.9 in NW 2.8 mph 6 mph 88.4% 0 in 0 W/m2
04:59 64.4 °F 60.8 °F 29.9 in WNW 3.7 mph 6 mph 88% 0 in 0 W/m2
05:04 64.4 °F 61 °F 29.9 in WNW 3.1 mph 6 mph 88.8% 0 in 0 W/m2
05:09 64.2 °F 60.8 °F 29.9 in WNW 3.4 mph 6 mph 89% 0 in 0 W/m2
05:14 64 °F 60.8 °F 29.9 in WNW 5 mph 8.1 mph 89% 0 in 0 W/m2
05:19 64 °F 60.8 °F 29.9 in WNW 4.7 mph 8.1 mph 89% 0 in 0 W/m2
05:24 64.2 °F 60.8 °F 29.9 in WNW 4.2 mph 8 mph 89% 0 in 0 W/m2
05:29 64 °F 60.8 °F 29.9 in West 4.2 mph 7 mph 89% 0 in 0 W/m2
05:34 63.9 °F 60.8 °F 29.9 in West 4.1 mph 6 mph 89.8% 0 in 0 W/m2
05:39 63.9 °F 60.8 °F 29.9 in WNW 4 mph 6 mph 90% 0 in 0 W/m2
05:44 64 °F 60.8 °F 29.9 in WNW 4.3 mph 7 mph 89.2% 0 in 0 W/m2
05:49 64 °F 60.8 °F 29.9 in West 4.5 mph 7 mph 89% 0 in 0 W/m2
05:54 64 °F 60.8 °F 29.9 in West 3.4 mph 6 mph 89% 0 in 0 W/m2
05:59 63.9 °F 60.6 °F 29.9 in WNW 2.9 mph 6 mph 89% 0 in 0 W/m2
06:04 63.9 °F 60.6 °F 29.9 in West 3.4 mph 5 mph 89% 0 in 0 W/m2
06:09 63.9 °F 60.6 °F 29.9 in West 2.5 mph 5 mph 89% 0 in 0 W/m2
06:14 63.9 °F 60.4 °F 29.9 in WSW 2.4 mph 3.5 mph 89% 0 in 0 W/m2
06:18 63.5 °F 60.1 °F 29.9 in West 2.2 mph 3.5 mph 89% 0 in 0 W/m2
06:24 63.1 °F 60.1 °F 29.9 in West 1.8 mph 4 mph 90% 0 in 5 W/m2
06:29 63.3 °F 60.3 °F 29.9 in West 1.7 mph 3.5 mph 90% 0 in 7 W/m2
06:34 63.3 °F 60.3 °F 29.9 in West 1.5 mph 3 mph 90% 0 in 11 W/m2
06:39 63 °F 60.1 °F 29.9 in West 2.1 mph 3.5 mph 90% 0 in 12 W/m2
06:44 62.8 °F 59.9 °F 29.9 in WNW 2.2 mph 3.5 mph 90% 0 in 14 W/m2
06:49 63.1 °F 60.1 °F 29.9 in WNW 1.1 mph 3.5 mph 90% 0 in 16 W/m2
06:54 63.3 °F 60.3 °F 29.9 in WNW 1 mph 3 mph 90% 0 in 19 W/m2
06:59 63.3 °F 60.3 °F 29.9 in WNW 1.2 mph 2.3 mph 90% 0 in 25 W/m2
07:04 63.5 °F 60.3 °F 29.9 in NW 1.8 mph 3.5 mph 89.4% 0 in 33 W/m2
07:09 63.9 °F 60.4 °F 29.9 in WNW 1.6 mph 3.5 mph 89% 0 in 39 W/m2
07:14 64 °F 60.6 °F 29.9 in West 1.7 mph 4 mph 88.8% 0 in 51 W/m2
07:19 64 °F 60.8 °F 29.9 in WSW 2.5 mph 4 mph 89% 0 in 62 W/m2
07:24 64.2 °F 61 °F 29.9 in West 2.9 mph 4 mph 89% 0 in 70 W/m2
07:29 64.8 °F 61.2 °F 29.9 in WNW 1.7 mph 4 mph 88% 0 in 83 W/m2
07:34 65.1 °F 61.2 °F 29.9 in WNW 2.4 mph 4 mph 86.8% 0 in 97 W/m2
07:39 65.7 °F 61.3 °F 29.9 in West 1.6 mph 4 mph 86.4% 0 in 111 W/m2
07:44 66 °F 61.5 °F 29.9 in WNW 2.2 mph 4 mph 85.8% 0 in 127 W/m2
07:49 66.4 °F 61.7 °F 29.9 in West 2.4 mph 4 mph 85% 0 in 142 W/m2
07:54 66.6 °F 62.2 °F 29.9 in WSW 2.4 mph 4 mph 85.8% 0 in 160 W/m2
07:59 66.7 °F 62.4 °F 29.9 in WSW 2.8 mph 4 mph 85.8% 0 in 171 W/m2
08:04 67.1 °F 62.4 °F 29.9 in WSW 2.4 mph 4 mph 85% 0 in 185 W/m2
08:09 67.5 °F 62.8 °F 29.9 in WSW 3.2 mph 5 mph 85% 0 in 199 W/m2
08:14 67.5 °F 62.8 °F 29.9 in West 2.9 mph 5 mph 84.8% 0 in 213 W/m2
08:19 67.8 °F 62.6 °F 29.9 in West 2.6 mph 5 mph 83.1% 0 in 225 W/m2
08:24 68.4 °F 63 °F 29.9 in West 2.8 mph 5 mph 82.8% 0 in 241 W/m2
08:29 68.7 °F 62.8 °F 29.9 in West 3.7 mph 5 mph 81.7% 0 in 255 W/m2
08:34 69.1 °F 63 °F 29.9 in WNW 2.5 mph 5 mph 80.9% 0 in 267 W/m2
08:39 69.6 °F 62.6 °F 29.9 in WNW 3.3 mph 5 mph 78.7% 0 in 283 W/m2
08:44 70 °F 62.4 °F 29.9 in West 2.7 mph 5 mph 76.8% 0 in 297 W/m2
08:49 70.2 °F 62.4 °F 29.9 in WNW 1.6 mph 5 mph 76.3% 0 in 311 W/m2
08:54 70.5 °F 62.6 °F 29.9 in WNW 2.5 mph 5 mph 76.1% 0 in 327 W/m2
08:59 71.1 °F 63.1 °F 29.9 in WNW 3 mph 6 mph 76.1% 0 in 341 W/m2
09:04 71.4 °F 63.5 °F 29.9 in NW 2.7 mph 6 mph 76% 0 in 357 W/m2
09:09 71.8 °F 63.3 °F 29.9 in NW 3 mph 5 mph 74.6% 0 in 369 W/m2
09:14 72 °F 63.5 °F 29.9 in NNW 2.1 mph 5 mph 74.8% 0 in 383 W/m2
09:19 72.5 °F 63.5 °F 29.9 in NNW 2.3 mph 5 mph 73.4% 0 in 397 W/m2
09:24 72.7 °F 63.3 °F 29.9 in WNW 1.7 mph 5 mph 72.4% 0 in 411 W/m2
09:29 72.9 °F 63.3 °F 29.9 in WNW 3.4 mph 6 mph 71.9% 0 in 427 W/m2
09:34 73.2 °F 63.3 °F 29.9 in WNW 1.9 mph 6 mph 71.2% 0 in 441 W/m2
09:39 73.6 °F 63.9 °F 29.9 in NW 2.3 mph 4 mph 71.8% 0 in 454 W/m2
09:44 73.9 °F 63.9 °F 29.9 in NNW 2.4 mph 5 mph 70.4% 0 in 466 W/m2
09:49 74.5 °F 63.7 °F 29.9 in NNW 2.9 mph 6 mph 69.2% 0 in 476 W/m2
09:54 75 °F 63.7 °F 29.9 in NW 2.1 mph 6 mph 68.2% 0 in 492 W/m2
09:59 74.8 °F 63.5 °F 29.9 in NW 1.6 mph 4 mph 68% 0 in 508 W/m2
10:04 75.2 °F 64 °F 29.9 in North 2.4 mph 5 mph 68.4% 0 in 520 W/m2
10:09 75.7 °F 63.7 °F 29.9 in NW 2.5 mph 5 mph 66.1% 0 in 531 W/m2
10:14 75.7 °F 63.3 °F 29.9 in NNE 1.9 mph 4 mph 65.2% 0 in 545 W/m2
10:19 75.7 °F 63.3 °F 29.9 in East 1.5 mph 4 mph 65.3% 0 in 557 W/m2
10:24 76.1 °F 63.5 °F 29.9 in South 0.4 mph 3 mph 65.2% 0 in 570 W/m2
10:29 76.5 °F 63.5 °F 29.9 in WNW 1.4 mph 4 mph 64.3% 0 in 582 W/m2
10:34 77 °F 63.5 °F 29.9 in NNW 1.4 mph 4 mph 63.4% 0 in 592 W/m2
10:39 77 °F 62.2 °F 29.9 in West 2.3 mph 4 mph 60.5% 0 in 605 W/m2
10:44 77.2 °F 62.8 °F 29.9 in West 3.4 mph 6 mph 61% 0 in 617 W/m2
10:49 77.4 °F 61.9 °F 29.9 in West 3.6 mph 6 mph 58.7% 0 in 624 W/m2
10:54 77.2 °F 61.9 °F 29.9 in WSW 3.7 mph 6 mph 59% 0 in 638 W/m2
10:59 77.4 °F 61.9 °F 29.9 in SW 2.1 mph 6 mph 59.1% 0 in 647 W/m2
11:04 77.7 °F 61.2 °F 29.9 in WSW 4.1 mph 7 mph 56.8% 0 in 661 W/m2
11:09 77.7 °F 61 °F 29.9 in SW 1.9 mph 7 mph 56.4% 0 in 666 W/m2
11:14 78.3 °F 60.1 °F 29.9 in WSW 4.7 mph 10.4 mph 53.8% 0 in 680 W/m2
11:19 78.6 °F 59.4 °F 29.9 in West 3 mph 10 mph 51.8% 0 in 689 W/m2
11:24 79 °F 60.4 °F 29.9 in West 3.4 mph 7 mph 53.1% 0 in 696 W/m2
11:29 79 °F 61 °F 29.9 in WNW 4.4 mph 7 mph 54.1% 0 in 705 W/m2
11:34 79.7 °F 60.8 °F 29.9 in WNW 4.2 mph 7 mph 52.5% 0 in 715 W/m2
11:39 80.1 °F 60.1 °F 29.9 in WNW 4.6 mph 10.4 mph 50.9% 0 in 724 W/m2
11:44 80.1 °F 57.2 °F 29.9 in WNW 4.9 mph 10.4 mph 45.7% 0 in 733 W/m2
11:49 80.1 °F 57.7 °F 29.9 in NNW 3.5 mph 10 mph 46.7% 0 in 740 W/m2
11:54 80.2 °F 58.6 °F 29.9 in WNW 4 mph 7 mph 47.7% 0 in 747 W/m2
11:59 80.4 °F 58.3 °F 29.9 in WNW 4.8 mph 8.1 mph 46.9% 0 in 754 W/m2
12:04 80.4 °F 57.9 °F 29.9 in NNW 3.4 mph 8.1 mph 46.4% 0 in 759 W/m2
12:09 80.1 °F 58.1 °F 29.9 in NE 1.1 mph 8 mph 47.3% 0 in 766 W/m2
12:14 80.4 °F 59.2 °F 29.9 in North 1.5 mph 5 mph 48.5% 0 in 772 W/m2
12:19 81.3 °F 59 °F 29.9 in NNW 2.4 mph 5 mph 46.9% 0 in 780 W/m2
12:24 81.3 °F 59.5 °F 29.9 in NNE 1.5 mph 5 mph 47.7% 0 in 766 W/m2
12:29 81.3 °F 58.8 °F 29.9 in WSW 2.2 mph 5 mph 46.6% 0 in 564 W/m2
12:34 81.3 °F 58.8 °F 29.9 in NNW 2.3 mph 7 mph 46.4% 0 in 218 W/m2
12:39 81.5 °F 58.6 °F 29.9 in WSW 3.1 mph 7 mph 45.8% 0 in 633 W/m2
12:44 81.1 °F 59 °F 29.9 in West 1.9 mph 6 mph 47.3% 0 in 803 W/m2
12:49 81.9 °F 59.7 °F 29.9 in North 3.8 mph 6 mph 47.1% 0 in 807 W/m2
12:54 81.7 °F 57.7 °F 29.9 in NNE 2.7 mph 6 mph 44% 0 in 812 W/m2
12:59 81.5 °F 57.9 °F 29.9 in ENE 3 mph 5 mph 44.8% 0 in 814 W/m2
13:04 81.1 °F 58.3 °F 29.9 in ESE 4.8 mph 8.1 mph 45.7% 0 in 816 W/m2
13:09 81 °F 57.7 °F 29.9 in SSE 2.7 mph 8 mph 45.1% 0 in 823 W/m2
13:14 81.7 °F 58.5 °F 29.9 in SE 2.2 mph 5 mph 45.6% 0 in 826 W/m2
13:19 82.2 °F 59.2 °F 29.9 in South 2.1 mph 5 mph 45.8% 0 in 830 W/m2
13:24 82.4 °F 59 °F 29.9 in SE 2.1 mph 5 mph 45.2% 0 in 830 W/m2
13:29 82.2 °F 57.2 °F 29.9 in NW 1 mph 4 mph 42.8% 0 in 833 W/m2
13:34 82.2 °F 58.1 °F 29.9 in East 1.8 mph 9.2 mph 44.1% 0 in 833 W/m2
13:39 82.9 °F 57.7 °F 29.9 in SW 2.7 mph 9 mph 42.5% 0 in 833 W/m2
13:44 82.6 °F 58.3 °F 29.9 in South 2.1 mph 6 mph 43.9% 0 in 831 W/m2
13:49 82.2 °F 58.8 °F 29.9 in WSW 3.2 mph 6 mph 45.3% 0 in 831 W/m2
13:54 82.6 °F 59.7 °F 29.9 in West 3.9 mph 7 mph 46.2% 0 in 828 W/m2
13:59 82.8 °F 59.4 °F 29.9 in NW 3.8 mph 7 mph 45.4% 0 in 828 W/m2
14:04 83.1 °F 60.8 °F 29.9 in West 5.3 mph 8.1 mph 46.9% 0 in 826 W/m2
14:09 82.2 °F 58.8 °F 29.9 in SSW 3.5 mph 8 mph 45.1% 0 in 823 W/m2
14:14 82.2 °F 60.3 °F 29.9 in SE 2 mph 7 mph 47.5% 0 in 823 W/m2
14:19 82.9 °F 59.7 °F 29.9 in South 2.5 mph 7 mph 45.5% 0 in 819 W/m2
14:24 83.3 °F 60.1 °F 29.9 in SSE 4.1 mph 8 mph 45.5% 0 in 812 W/m2
14:29 82.8 °F 59.7 °F 29.9 in East 2.2 mph 8.1 mph 45.7% 0 in 814 W/m2
14:34 82.9 °F 59.7 °F 29.9 in SE 3.9 mph 9.2 mph 45.7% 0 in 814 W/m2
14:39 82.6 °F 59.4 °F 29.9 in SE 5 mph 9 mph 45.5% 0 in 807 W/m2
14:44 83.1 °F 59.9 °F 29.9 in SSE 3.5 mph 10.4 mph 45.4% 0 in 803 W/m2
14:49 82.8 °F 58.6 °F 29.9 in South 2.6 mph 10 mph 44.1% 0 in 800 W/m2
14:54 83.1 °F 58.5 °F 29.9 in SE 2.8 mph 7 mph 43.2% 0 in 796 W/m2
14:59 83.7 °F 59.2 °F 29.9 in SSE 1.9 mph 6 mph 43.6% 0 in 788 W/m2
15:04 83.5 °F 58.1 °F 29.9 in SE 3.7 mph 6 mph 42.2% 0 in 784 W/m2
15:09 83.1 °F 58.6 °F 29.9 in East 3.6 mph 6 mph 43.5% 0 in 780 W/m2
15:14 83.5 °F 58.5 °F 29.9 in South 2.4 mph 6 mph 42.7% 0 in 773 W/m2
15:19 83.5 °F 59.2 °F 29.9 in East 3.7 mph 7 mph 43.8% 0 in 766 W/m2
15:24 83.5 °F 58.5 °F 29.9 in SSE 1.7 mph 7 mph 42.7% 0 in 756 W/m2
15:29 84 °F 59.4 °F 29.9 in East 2.4 mph 7 mph 43.5% 0 in 749 W/m2
15:34 83.8 °F 57.9 °F 29.9 in East 1.7 mph 7 mph 41.4% 0 in 740 W/m2
15:39 83.5 °F 59 °F 29.9 in NNE 1.7 mph 5 mph 43.5% 0 in 733 W/m2
15:44 83.8 °F 58.3 °F 29.9 in East 3.2 mph 8.1 mph 41.9% 0 in 726 W/m2
15:49 83.8 °F 58.5 °F 29.9 in ENE 3.7 mph 8.1 mph 42.5% 0 in 714 W/m2
15:54 84.2 °F 60.1 °F 29.9 in NNE 3.1 mph 8 mph 44.2% 0 in 707 W/m2
15:59 83.5 °F 57.9 °F 29.9 in ENE 1.6 mph 6 mph 41.9% 0 in 696 W/m2
16:04 83.7 °F 58.8 °F 29.9 in NNW 1.6 mph 5 mph 43.1% 0 in 689 W/m2
16:09 84 °F 58.1 °F 29.9 in East 3 mph 7 mph 41.6% 0 in 677 W/m2
16:14 83.7 °F 59.4 °F 29.9 in NE 2.5 mph 7 mph 43.8% 0 in 666 W/m2
16:19 84.2 °F 59.4 °F 29.9 in ENE 3.4 mph 7 mph 43.1% 0 in 656 W/m2
16:24 83.8 °F 58.8 °F 29.9 in ESE 3.2 mph 7 mph 42.9% 0 in 645 W/m2
16:29 83.8 °F 58.8 °F 29.9 in East 3 mph 7 mph 42.8% 0 in 633 W/m2
16:34 84 °F 58.6 °F 29.9 in NE 3.4 mph 8.1 mph 42.2% 0 in 624 W/m2
16:39 84 °F 59.4 °F 29.9 in NE 2.5 mph 8.1 mph 43.3% 0 in 613 W/m2
16:44 83.8 °F 59.9 °F 29.9 in East 2.8 mph 8 mph 44.3% 0 in 598 W/m2
16:49 84 °F 59 °F 29.9 in ESE 3.9 mph 7 mph 43% 0 in 587 W/m2
16:54 83.8 °F 59 °F 29.9 in South 2.2 mph 7 mph 43.3% 0 in 568 W/m2
16:59 83.8 °F 59.9 °F 29.9 in East 4.2 mph 7 mph 44.5% 0 in 555 W/m2
17:04 83.5 °F 58.8 °F 29.9 in SE 1.8 mph 7 mph 43.2% 0 in 547 W/m2
17:09 83.8 °F 58.3 °F 29.9 in SE 1.8 mph 8 mph 42.1% 0 in 536 W/m2
17:14 83.7 °F 58.5 °F 29.9 in ESE 2.4 mph 8.1 mph 42.6% 0 in 520 W/m2
17:19 83.7 °F 59 °F 29.9 in East 2.9 mph 8 mph 43.5% 0 in 504 W/m2
17:24 83.8 °F 59 °F 29.9 in ESE 1.4 mph 5 mph 42.9% 0 in 496 W/m2
17:29 84 °F 58.3 °F 29.9 in SSW 2.2 mph 5 mph 41.7% 0 in 480 W/m2
17:34 84 °F 59.9 °F 29.9 in SW 1 mph 5 mph 44.3% 0 in 466 W/m2
17:39 84.4 °F 59.4 °F 29.9 in SE 3.3 mph 7 mph 43.1% 0 in 438 W/m2
17:44 83.7 °F 59 °F 29.9 in SSE 2.9 mph 7 mph 43.3% 0 in 422 W/m2
17:49 84 °F 59 °F 29.9 in SSW 3.2 mph 7 mph 42.8% 0 in 95 W/m2
17:54 84 °F 58.8 °F 29.9 in SSW 2.4 mph 6 mph 42.7% 0 in 406 W/m2
17:59 83.7 °F 58.8 °F 29.9 in ESE 1.9 mph 5 mph 43% 0 in 396 W/m2
18:04 84.2 °F 59 °F 29.9 in SSW 2.6 mph 7 mph 42.5% 0 in 383 W/m2
18:09 84.2 °F 59.2 °F 29.9 in SW 2.9 mph 7 mph 42.8% 0 in 367 W/m2
18:14 83.8 °F 58.1 °F 29.9 in SW 2.1 mph 6 mph 41.7% 0 in 352 W/m2
18:19 83.8 °F 57.9 °F 29.9 in SW 2.5 mph 6 mph 41.5% 0 in 338 W/m2
18:24 84 °F 58.1 °F 29.9 in SW 2.5 mph 6 mph 41.6% 0 in 325 W/m2
18:29 83.7 °F 58.5 °F 29.9 in SSE 2.9 mph 6 mph 42.6% 0 in 309 W/m2
18:34 83.1 °F 59.5 °F 29.9 in ESE 2.7 mph 6 mph 45.1% 0 in 294 W/m2
18:39 82.9 °F 59.9 °F 29.9 in SE 2.1 mph 6 mph 45.6% 0 in 278 W/m2
18:44 83.3 °F 59.4 °F 29.9 in SSE 2.7 mph 6 mph 44.5% 0 in 265 W/m2
18:49 83.3 °F 59 °F 29.9 in South 1.9 mph 3.5 mph 43.8% 0 in 248 W/m2
18:54 83.5 °F 58.3 °F 29.9 in SSE 1.2 mph 3.5 mph 42.6% 0 in 234 W/m2
18:59 83.7 °F 57.9 °F 29.9 in ESE 0.8 mph 3 mph 41.7% 0 in 218 W/m2
19:04 82.9 °F 58.6 °F 29.9 in ESE 1.7 mph 3.5 mph 43.7% 0 in 204 W/m2
19:09 82.6 °F 58.8 °F 29.9 in ESE 1.2 mph 3 mph 44.5% 0 in 186 W/m2
19:14 82.6 °F 59.2 °F 29.9 in ESE 1.4 mph 4 mph 45.3% 0 in 167 W/m2
19:19 81.9 °F 60.8 °F 29.9 in ESE 2.2 mph 4 mph 49% 0 in 151 W/m2
19:24 81.9 °F 60.1 °F 29.9 in ESE 1.6 mph 3 mph 48% 0 in 134 W/m2
19:29 81.7 °F 59.9 °F 29.9 in ESE 1.9 mph 3.5 mph 48% 0 in 120 W/m2
19:34 81.3 °F 60.6 °F 29.9 in ESE 1.7 mph 3.5 mph 49.6% 0 in 102 W/m2
19:39 81 °F 61 °F 29.9 in ESE 1.3 mph 3 mph 50.5% 0 in 86 W/m2
19:44 80.8 °F 60.8 °F 29.9 in ESE 0.6 mph 2 mph 50.6% 0 in 25 W/m2
19:49 80.8 °F 60.6 °F 29.9 in ESE 0.6 mph 2.3 mph 50.2% 0 in 23 W/m2
19:54 80.8 °F 61 °F 29.9 in ESE 0.1 mph 2 mph 51.2% 0 in 21 W/m2
19:59 80.4 °F 61.2 °F 29.9 in ESE 0.7 mph 2.3 mph 52% 0 in 19 W/m2
20:04 79.9 °F 62.1 °F 29.9 in ESE 0.1 mph 2 mph 54.8% 0 in 18 W/m2
20:09 79.3 °F 63 °F 29.9 in Calm   1 mph 57.4% 0 in 14 W/m2
20:14 78.8 °F 63.1 °F 29.9 in ESE 0.6 mph 1.2 mph 58.7% 0 in 12 W/m2
20:19 78.1 °F 63 °F 29.9 in ESE 0.5 mph 1.2 mph 59.6% 0 in 9 W/m2
20:24 77.7 °F 62.1 °F 29.9 in ESE 0.4 mph 1.2 mph 58.7% 0 in 7 W/m2
20:29 77.2 °F 62.1 °F 29.9 in ESE 0.2 mph 1.2 mph 59.7% 0 in 0 W/m2
20:34 76.8 °F 62.4 °F 29.9 in ESE 0.2 mph 1.2 mph 61.2% 0 in 0 W/m2
20:39 76.5 °F 62.8 °F 29.9 in ESE 0.3 mph 1.2 mph 62.7% 0 in 0 W/m2
20:44 76.1 °F 62.8 °F 29.9 in ESE 0.7 mph 1.2 mph 63.4% 0 in 0 W/m2
20:49 75.9 °F 61.7 °F 29.9 in ESE 0.2 mph 1.2 mph 61.3% 0 in 0 W/m2
20:54 75.6 °F 61.7 °F 29.9 in Calm   1 mph 62.1% 0 in 0 W/m2
20:59 75.2 °F 62.1 °F 29.9 in Calm     63.8% 0 in 0 W/m2
21:04 75 °F 61.5 °F 29.9 in Calm     62.8% 0 in 0 W/m2
21:09 74.7 °F 60.6 °F 29.9 in ESE 0.7 mph 2.3 mph 61.5% 0 in 0 W/m2
21:14 74.5 °F 61.2 °F 29.9 in ESE 0.7 mph 2 mph 63.1% 0 in 0 W/m2
21:19 74.1 °F 61.2 °F 29.9 in ESE 0.7 mph 1.2 mph 64% 0 in 0 W/m2
21:24 73.9 °F 60.8 °F 29.9 in ESE 0.6 mph 1.2 mph 63.5% 0 in 0 W/m2
21:29 73.8 °F 60.6 °F 29.9 in Calm   1 mph 63.7% 0 in 0 W/m2
21:34 73.6 °F 60.8 °F 29.9 in Calm     64.2% 0 in 0 W/m2
21:39 73.6 °F 61 °F 29.9 in Calm     65% 0 in 0 W/m2
21:44 73.4 °F 61.7 °F 29.9 in ESE 0.1 mph 1.2 mph 66.7% 0 in 0 W/m2
21:49 73.2 °F 61.7 °F 29.9 in ESE 0.9 mph 2.3 mph 67% 0 in 0 W/m2
21:54 73 °F 61.2 °F 29.9 in ESE 1.3 mph 2.3 mph 66.6% 0 in 0 W/m2
21:59 72.7 °F 61.5 °F 29.9 in ESE 1.1 mph 2.3 mph 68% 0 in 0 W/m2
22:04 72.5 °F 61.3 °F 29.9 in ESE 0.4 mph 2.3 mph 68.3% 0 in 0 W/m2
22:09 72.3 °F 62.1 °F 29.9 in SSE 0.4 mph 2 mph 70.1% 0 in 0 W/m2
22:14 72.3 °F 63.3 °F 29.9 in SW 1.4 mph 2.3 mph 73.6% 0 in 0 W/m2
22:19 72.1 °F 63.7 °F 29.9 in SW 0.9 mph 2.3 mph 74.9% 0 in 0 W/m2
22:24 72.3 °F 63.5 °F 29.9 in SE 1 mph 2.3 mph 74.2% 0 in 0 W/m2
22:29 72.1 °F 63.3 °F 29.9 in East 1.2 mph 2.3 mph 73.8% 0 in 0 W/m2
22:34 72.1 °F 63.1 °F 29.9 in East 0.4 mph 2 mph 73.3% 0 in 0 W/m2
22:39 72.1 °F 63.3 °F 29.9 in East 1.3 mph 3 mph 73.7% 0 in 0 W/m2
22:44 72.5 °F 63.1 °F 29.9 in East 1.9 mph 3.5 mph 72.5% 0 in 0 W/m2
22:49 72.9 °F 62.8 °F 29.9 in East 1.9 mph 4 mph 70.7% 0 in 0 W/m2
22:54 73.2 °F 61.9 °F 29.9 in East 2.4 mph 6 mph 67.7% 0 in 0 W/m2
22:59 73.6 °F 61.2 °F 29.9 in East 2.4 mph 6 mph 65.1% 0 in 0 W/m2
23:04 73.8 °F 60.8 °F 29.9 in East 2.4 mph 5 mph 64.2% 0 in 0 W/m2
23:09 73.8 °F 61 °F 29.9 in ESE 2.3 mph 5 mph 64.3% 0 in 0 W/m2
23:14 73.8 °F 60.8 °F 29.9 in ESE 3.5 mph 5 mph 64% 0 in 0 W/m2
23:19 73.6 °F 60.8 °F 29.9 in ESE 2.8 mph 5 mph 64.2% 0 in 0 W/m2
23:24 73.2 °F 60.6 °F 29.9 in ESE 2.9 mph 5 mph 64.6% 0 in 0 W/m2
23:29 73 °F 60.6 °F 29.9 in SE 2.5 mph 5 mph 65% 0 in 0 W/m2
23:34 72.9 °F 60.1 °F 29.9 in SE 2.4 mph 4 mph 64.2% 0 in 0 W/m2
23:39 72.7 °F 60.1 °F 29.9 in ESE 2.7 mph 4 mph 64.8% 0 in 0 W/m2
23:44 72.3 °F 60.1 °F 29.9 in ESE 2.5 mph 4 mph 65.6% 0 in 0 W/m2
23:49 71.8 °F 60.1 °F 29.9 in ESE 2.1 mph 4 mph 66.5% 0 in 0 W/m2
23:54 71.6 °F 60.1 °F 29.9 in East 2.3 mph 5 mph 67% 0 in 0 W/m2
23:59 71.4 °F 60.3 °F 29.9 in East 2.1 mph 5 mph 67.8% 0 in 0 W/m2
Stazione Meteorologica MeteoMincio Rivalta s/M (MN)
Con i complimenti di Weather Underground - 2 mb


GLOSSARIO METEOROLOGICO
Humidex
è un indice di calore introdotto originariamente in Canada, ove è, ancora oggi largamente impiegato. è utilizzato per descrivere il disagio fisiologico che può verificarsi nelle giornate umide e calde. Tale indice è sensibile in un intervallo di temperatura compreso tra 20°C e 55°C. Al di fuori di tale intervallo, anche al variare dell'umidità relativa, l'indice individua sempre le classi estreme.

Do NOT follow this link or you will be banned from the site!